sensor_id;sensor_type;location;lat;lon;timestamp;temperature;humidity
71082;SHT31;58740;50.672;18.690;2023-03-01T00:01:44;-1.23;71.21
71082;SHT31;58740;50.672;18.690;2023-03-01T00:04:11;-1.23;71.22
71082;SHT31;58740;50.672;18.690;2023-03-01T00:06:39;-1.24;71.20
71082;SHT31;58740;50.672;18.690;2023-03-01T00:09:07;-1.26;71.22
71082;SHT31;58740;50.672;18.690;2023-03-01T00:11:35;-1.31;71.29
71082;SHT31;58740;50.672;18.690;2023-03-01T00:14:03;-1.33;71.34
71082;SHT31;58740;50.672;18.690;2023-03-01T00:16:38;-1.34;71.42
71082;SHT31;58740;50.672;18.690;2023-03-01T00:19:12;-1.37;71.44
71082;SHT31;58740;50.672;18.690;2023-03-01T00:21:43;-1.36;71.40
71082;SHT31;58740;50.672;18.690;2023-03-01T00:24:11;-1.36;71.46
71082;SHT31;58740;50.672;18.690;2023-03-01T00:26:39;-1.36;71.50
71082;SHT31;58740;50.672;18.690;2023-03-01T00:29:07;-1.35;71.55
71082;SHT31;58740;50.672;18.690;2023-03-01T00:31:35;-1.34;71.51
71082;SHT31;58740;50.672;18.690;2023-03-01T00:34:04;-1.37;71.50
71082;SHT31;58740;50.672;18.690;2023-03-01T00:36:35;-1.40;71.51
71082;SHT31;58740;50.672;18.690;2023-03-01T00:39:05;-1.39;71.49
71082;SHT31;58740;50.672;18.690;2023-03-01T00:41:38;-1.39;71.46
71082;SHT31;58740;50.672;18.690;2023-03-01T00:44:07;-1.40;71.46
71082;SHT31;58740;50.672;18.690;2023-03-01T00:46:36;-1.41;71.49
71082;SHT31;58740;50.672;18.690;2023-03-01T00:49:03;-1.45;71.53
71082;SHT31;58740;50.672;18.690;2023-03-01T00:51:32;-1.50;71.71
71082;SHT31;58740;50.672;18.690;2023-03-01T00:54:00;-1.56;71.85
71082;SHT31;58740;50.672;18.690;2023-03-01T00:56:30;-1.61;71.94
71082;SHT31;58740;50.672;18.690;2023-03-01T00:58:59;-1.65;71.99
71082;SHT31;58740;50.672;18.690;2023-03-01T01:01:28;-1.69;72.07
71082;SHT31;58740;50.672;18.690;2023-03-01T01:04:05;-1.71;72.15
71082;SHT31;58740;50.672;18.690;2023-03-01T01:06:44;-1.74;72.23
71082;SHT31;58740;50.672;18.690;2023-03-01T01:09:14;-1.75;72.34
71082;SHT31;58740;50.672;18.690;2023-03-01T01:11:46;-1.71;72.37
71082;SHT31;58740;50.672;18.690;2023-03-01T01:14:16;-1.65;72.32
71082;SHT31;58740;50.672;18.690;2023-03-01T01:16:46;-1.61;72.10
71082;SHT31;58740;50.672;18.690;2023-03-01T01:19:14;-1.62;72.09
71082;SHT31;58740;50.672;18.690;2023-03-01T01:21:42;-1.65;72.26
71082;SHT31;58740;50.672;18.690;2023-03-01T01:24:11;-1.71;72.29
71082;SHT31;58740;50.672;18.690;2023-03-01T01:26:39;-1.77;72.30
71082;SHT31;58740;50.672;18.690;2023-03-01T01:29:08;-1.80;72.42
71082;SHT31;58740;50.672;18.690;2023-03-01T01:31:37;-1.81;72.43
71082;SHT31;58740;50.672;18.690;2023-03-01T01:34:07;-1.84;72.47
71082;SHT31;58740;50.672;18.690;2023-03-01T01:36:41;-1.89;72.49
71082;SHT31;58740;50.672;18.690;2023-03-01T01:39:09;-1.96;72.53
71082;SHT31;58740;50.672;18.690;2023-03-01T01:41:41;-2.01;72.70
71082;SHT31;58740;50.672;18.690;2023-03-01T01:44:14;-2.03;72.78
71082;SHT31;58740;50.672;18.690;2023-03-01T01:49:38;-2.04;72.85
71082;SHT31;58740;50.672;18.690;2023-03-01T01:52:17;-2.03;72.74
71082;SHT31;58740;50.672;18.690;2023-03-01T01:55:03;-2.02;72.87
71082;SHT31;58740;50.672;18.690;2023-03-01T02:00:13;-2.06;72.91
71082;SHT31;58740;50.672;18.690;2023-03-01T02:02:56;-2.10;73.09
71082;SHT31;58740;50.672;18.690;2023-03-01T02:05:42;-2.08;73.00
71082;SHT31;58740;50.672;18.690;2023-03-01T02:08:23;-2.07;72.90
71082;SHT31;58740;50.672;18.690;2023-03-01T02:10:55;-2.09;73.02
71082;SHT31;58740;50.672;18.690;2023-03-01T02:13:27;-2.10;72.92
71082;SHT31;58740;50.672;18.690;2023-03-01T02:15:55;-2.09;72.93
71082;SHT31;58740;50.672;18.690;2023-03-01T02:18:23;-2.09;72.96
71082;SHT31;58740;50.672;18.690;2023-03-01T02:21:01;-2.12;73.01
71082;SHT31;58740;50.672;18.690;2023-03-01T02:23:45;-2.14;73.06
71082;SHT31;58740;50.672;18.690;2023-03-01T02:28:51;-2.20;73.06
71082;SHT31;58740;50.672;18.690;2023-03-01T02:31:19;-2.18;73.11
71082;SHT31;58740;50.672;18.690;2023-03-01T02:34:08;-2.14;73.10
71082;SHT31;58740;50.672;18.690;2023-03-01T02:37:05;-2.15;73.14
71082;SHT31;58740;50.672;18.690;2023-03-01T02:39:41;-2.17;73.08
71082;SHT31;58740;50.672;18.690;2023-03-01T02:42:18;-2.21;73.29
71082;SHT31;58740;50.672;18.690;2023-03-01T02:44:54;-2.21;73.23
71082;SHT31;58740;50.672;18.690;2023-03-01T02:47:21;-2.23;73.16
71082;SHT31;58740;50.672;18.690;2023-03-01T02:49:49;-2.22;73.14
71082;SHT31;58740;50.672;18.690;2023-03-01T02:52:28;-2.21;73.02
71082;SHT31;58740;50.672;18.690;2023-03-01T02:55:11;-2.24;73.01
71082;SHT31;58740;50.672;18.690;2023-03-01T02:57:43;-2.30;73.00
71082;SHT31;58740;50.672;18.690;2023-03-01T03:00:15;-2.39;73.13
71082;SHT31;58740;50.672;18.690;2023-03-01T03:02:51;-2.46;73.35
71082;SHT31;58740;50.672;18.690;2023-03-01T03:05:22;-2.52;73.60
71082;SHT31;58740;50.672;18.690;2023-03-01T03:07:54;-2.58;73.68
71082;SHT31;58740;50.672;18.690;2023-03-01T03:10:25;-2.60;73.84
71082;SHT31;58740;50.672;18.690;2023-03-01T03:13:09;-2.55;73.76
71082;SHT31;58740;50.672;18.690;2023-03-01T03:15:41;-2.47;73.63
71082;SHT31;58740;50.672;18.690;2023-03-01T03:18:11;-2.43;73.52
71082;SHT31;58740;50.672;18.690;2023-03-01T03:20:43;-2.37;73.54
71082;SHT31;58740;50.672;18.690;2023-03-01T03:23:13;-2.36;73.42
71082;SHT31;58740;50.672;18.690;2023-03-01T03:25:41;-2.37;73.37
71082;SHT31;58740;50.672;18.690;2023-03-01T03:28:09;-2.41;73.25
71082;SHT31;58740;50.672;18.690;2023-03-01T03:30:38;-2.46;73.38
71082;SHT31;58740;50.672;18.690;2023-03-01T03:33:08;-2.48;73.40
71082;SHT31;58740;50.672;18.690;2023-03-01T03:35:41;-2.52;73.36
71082;SHT31;58740;50.672;18.690;2023-03-01T03:38:17;-2.58;73.48
71082;SHT31;58740;50.672;18.690;2023-03-01T03:40:50;-2.66;73.78
71082;SHT31;58740;50.672;18.690;2023-03-01T03:43:30;-2.71;73.91
71082;SHT31;58740;50.672;18.690;2023-03-01T03:46:01;-2.73;74.21
71082;SHT31;58740;50.672;18.690;2023-03-01T03:48:36;-2.72;74.15
71082;SHT31;58740;50.672;18.690;2023-03-01T03:51:09;-2.70;74.02
71082;SHT31;58740;50.672;18.690;2023-03-01T03:53:40;-2.64;73.87
71082;SHT31;58740;50.672;18.690;2023-03-01T03:56:08;-2.57;73.69
71082;SHT31;58740;50.672;18.690;2023-03-01T03:58:37;-2.55;73.55
71082;SHT31;58740;50.672;18.690;2023-03-01T04:01:04;-2.51;73.52
71082;SHT31;58740;50.672;18.690;2023-03-01T04:03:33;-2.49;73.50
71082;SHT31;58740;50.672;18.690;2023-03-01T04:06:02;-2.49;73.49
71082;SHT31;58740;50.672;18.690;2023-03-01T04:08:31;-2.46;73.44
71082;SHT31;58740;50.672;18.690;2023-03-01T04:11:00;-2.47;73.34
71082;SHT31;58740;50.672;18.690;2023-03-01T04:13:49;-2.51;73.41
71082;SHT31;58740;50.672;18.690;2023-03-01T04:16:20;-2.59;73.70
71082;SHT31;58740;50.672;18.690;2023-03-01T04:18:48;-2.62;73.95
71082;SHT31;58740;50.672;18.690;2023-03-01T04:21:16;-2.66;73.82
71082;SHT31;58740;50.672;18.690;2023-03-01T04:23:44;-2.72;73.91
71082;SHT31;58740;50.672;18.690;2023-03-01T04:26:12;-2.75;73.93
71082;SHT31;58740;50.672;18.690;2023-03-01T04:28:40;-2.80;73.97
71082;SHT31;58740;50.672;18.690;2023-03-01T04:31:14;-2.86;74.11
71082;SHT31;58740;50.672;18.690;2023-03-01T04:33:49;-2.87;74.17
71082;SHT31;58740;50.672;18.690;2023-03-01T04:36:26;-2.85;74.32
71082;SHT31;58740;50.672;18.690;2023-03-01T04:38:57;-2.79;74.35
71082;SHT31;58740;50.672;18.690;2023-03-01T04:41:25;-2.72;74.16
71082;SHT31;58740;50.672;18.690;2023-03-01T04:43:53;-2.67;74.01
71082;SHT31;58740;50.672;18.690;2023-03-01T04:46:21;-2.66;73.87
71082;SHT31;58740;50.672;18.690;2023-03-01T04:48:49;-2.67;73.82
71082;SHT31;58740;50.672;18.690;2023-03-01T04:51:17;-2.72;73.90
71082;SHT31;58740;50.672;18.690;2023-03-01T04:53:45;-2.76;73.97
71082;SHT31;58740;50.672;18.690;2023-03-01T04:56:14;-2.78;74.09
71082;SHT31;58740;50.672;18.690;2023-03-01T04:58:43;-2.77;74.03
71082;SHT31;58740;50.672;18.690;2023-03-01T05:01:16;-2.79;74.00
71082;SHT31;58740;50.672;18.690;2023-03-01T05:03:47;-2.85;74.04
71082;SHT31;58740;50.672;18.690;2023-03-01T05:06:18;-2.87;74.12
71082;SHT31;58740;50.672;18.690;2023-03-01T05:08:48;-2.92;74.24
71082;SHT31;58740;50.672;18.690;2023-03-01T05:11:16;-2.95;74.14
71082;SHT31;58740;50.672;18.690;2023-03-01T05:13:44;-2.99;74.45
71082;SHT31;58740;50.672;18.690;2023-03-01T05:16:11;-2.97;74.61
71082;SHT31;58740;50.672;18.690;2023-03-01T05:18:40;-2.95;74.41
71082;SHT31;58740;50.672;18.690;2023-03-01T05:21:09;-2.91;74.29
71082;SHT31;58740;50.672;18.690;2023-03-01T05:23:43;-2.89;74.08
71082;SHT31;58740;50.672;18.690;2023-03-01T05:26:14;-2.85;73.94
71082;SHT31;58740;50.672;18.690;2023-03-01T05:29:00;-2.86;73.95
71082;SHT31;58740;50.672;18.690;2023-03-01T05:31:28;-2.87;73.99
71082;SHT31;58740;50.672;18.690;2023-03-01T05:33:58;-2.86;74.15
71082;SHT31;58740;50.672;18.690;2023-03-01T05:36:25;-2.81;74.01
71082;SHT31;58740;50.672;18.690;2023-03-01T05:38:53;-2.77;73.90
71082;SHT31;58740;50.672;18.690;2023-03-01T05:41:21;-2.75;73.93
71082;SHT31;58740;50.672;18.690;2023-03-01T05:43:49;-2.77;74.11
71082;SHT31;58740;50.672;18.690;2023-03-01T05:46:16;-2.77;74.17
71082;SHT31;58740;50.672;18.690;2023-03-01T05:48:44;-2.77;74.31
71082;SHT31;58740;50.672;18.690;2023-03-01T05:51:12;-2.80;74.48
71082;SHT31;58740;50.672;18.690;2023-03-01T05:53:40;-2.81;74.50
71082;SHT31;58740;50.672;18.690;2023-03-01T05:56:09;-2.82;74.44
71082;SHT31;58740;50.672;18.690;2023-03-01T05:58:36;-2.83;74.47
71082;SHT31;58740;50.672;18.690;2023-03-01T06:01:10;-2.80;74.46
71082;SHT31;58740;50.672;18.690;2023-03-01T06:03:40;-2.79;74.34
71082;SHT31;58740;50.672;18.690;2023-03-01T06:06:09;-2.76;74.40
71082;SHT31;58740;50.672;18.690;2023-03-01T06:08:36;-2.70;74.32
71082;SHT31;58740;50.672;18.690;2023-03-01T06:11:04;-2.65;74.34
71082;SHT31;58740;50.672;18.690;2023-03-01T06:13:32;-2.58;74.33
71082;SHT31;58740;50.672;18.690;2023-03-01T06:16:00;-2.53;74.28
71082;SHT31;58740;50.672;18.690;2023-03-01T06:18:28;-2.46;74.24
71082;SHT31;58740;50.672;18.690;2023-03-01T06:20:56;-2.38;74.21
71082;SHT31;58740;50.672;18.690;2023-03-01T06:23:24;-2.34;74.24
71082;SHT31;58740;50.672;18.690;2023-03-01T06:25:52;-2.26;74.18
71082;SHT31;58740;50.672;18.690;2023-03-01T06:28:20;-2.22;74.25
71082;SHT31;58740;50.672;18.690;2023-03-01T06:30:51;-2.19;74.28
71082;SHT31;58740;50.672;18.690;2023-03-01T06:33:20;-2.14;74.20
71082;SHT31;58740;50.672;18.690;2023-03-01T06:35:49;-2.10;74.32
71082;SHT31;58740;50.672;18.690;2023-03-01T06:38:18;-2.06;74.28
71082;SHT31;58740;50.672;18.690;2023-03-01T06:40:51;-2.00;74.43
71082;SHT31;58740;50.672;18.690;2023-03-01T06:43:21;-1.89;74.36
71082;SHT31;58740;50.672;18.690;2023-03-01T06:45:50;-1.79;74.26
71082;SHT31;58740;50.672;18.690;2023-03-01T06:48:18;-1.69;74.11
71082;SHT31;58740;50.672;18.690;2023-03-01T06:50:46;-1.61;73.96
71082;SHT31;58740;50.672;18.690;2023-03-01T06:53:14;-1.53;73.97
71082;SHT31;58740;50.672;18.690;2023-03-01T06:55:42;-1.46;73.77
71082;SHT31;58740;50.672;18.690;2023-03-01T06:58:10;-1.39;73.79
71082;SHT31;58740;50.672;18.690;2023-03-01T07:00:38;-1.34;73.35
71082;SHT31;58740;50.672;18.690;2023-03-01T07:03:08;-1.27;73.30
71082;SHT31;58740;50.672;18.690;2023-03-01T07:05:36;-1.19;73.25
71082;SHT31;58740;50.672;18.690;2023-03-01T07:08:04;-1.11;73.05
71082;SHT31;58740;50.672;18.690;2023-03-01T07:10:31;-1.05;72.88
71082;SHT31;58740;50.672;18.690;2023-03-01T07:12:59;-1.01;72.72
71082;SHT31;58740;50.672;18.690;2023-03-01T07:15:27;-0.96;72.74
71082;SHT31;58740;50.672;18.690;2023-03-01T07:17:56;-0.92;72.72
71082;SHT31;58740;50.672;18.690;2023-03-01T07:20:24;-0.88;72.42
71082;SHT31;58740;50.672;18.690;2023-03-01T07:22:53;-0.87;72.45
71082;SHT31;58740;50.672;18.690;2023-03-01T07:25:22;-0.81;72.34
71082;SHT31;58740;50.672;18.690;2023-03-01T07:27:53;-0.75;72.22
71082;SHT31;58740;50.672;18.690;2023-03-01T07:30:21;-0.65;72.28
71082;SHT31;58740;50.672;18.690;2023-03-01T07:32:53;-0.53;72.22
71082;SHT31;58740;50.672;18.690;2023-03-01T07:35:23;-0.42;72.09
71082;SHT31;58740;50.672;18.690;2023-03-01T07:37:53;-0.30;72.10
71082;SHT31;58740;50.672;18.690;2023-03-01T07:40:21;-0.20;72.04
71082;SHT31;58740;50.672;18.690;2023-03-01T07:42:49;-0.10;71.68
71082;SHT31;58740;50.672;18.690;2023-03-01T07:45:24;-0.01;71.51
71082;SHT31;58740;50.672;18.690;2023-03-01T07:47:53;0.05;71.14
71082;SHT31;58740;50.672;18.690;2023-03-01T07:50:22;0.13;70.51
71082;SHT31;58740;50.672;18.690;2023-03-01T07:52:50;0.20;70.29
71082;SHT31;58740;50.672;18.690;2023-03-01T07:55:18;0.23;70.27
71082;SHT31;58740;50.672;18.690;2023-03-01T07:57:47;0.31;70.13
71082;SHT31;58740;50.672;18.690;2023-03-01T08:00:15;0.37;69.77
71082;SHT31;58740;50.672;18.690;2023-03-01T08:02:43;0.45;69.61
71082;SHT31;58740;50.672;18.690;2023-03-01T08:05:11;0.53;69.58
71082;SHT31;58740;50.672;18.690;2023-03-01T08:07:39;0.60;69.38
71082;SHT31;58740;50.672;18.690;2023-03-01T08:10:06;0.67;69.06
71082;SHT31;58740;50.672;18.690;2023-03-01T08:12:35;0.75;68.69
71082;SHT31;58740;50.672;18.690;2023-03-01T08:15:03;0.79;68.61
71082;SHT31;58740;50.672;18.690;2023-03-01T08:17:31;0.84;68.79
71082;SHT31;58740;50.672;18.690;2023-03-01T08:19:59;0.89;68.52
71082;SHT31;58740;50.672;18.690;2023-03-01T08:22:27;0.92;68.14
71082;SHT31;58740;50.672;18.690;2023-03-01T08:24:55;0.99;68.16
71082;SHT31;58740;50.672;18.690;2023-03-01T08:27:23;1.07;68.11
71082;SHT31;58740;50.672;18.690;2023-03-01T08:29:52;1.15;68.29
71082;SHT31;58740;50.672;18.690;2023-03-01T08:32:19;1.22;67.42
71082;SHT31;58740;50.672;18.690;2023-03-01T08:34:47;1.27;67.20
71082;SHT31;58740;50.672;18.690;2023-03-01T08:37:15;1.32;67.15
71082;SHT31;58740;50.672;18.690;2023-03-01T08:39:43;1.40;66.96
71082;SHT31;58740;50.672;18.690;2023-03-01T08:42:11;1.49;66.84
71082;SHT31;58740;50.672;18.690;2023-03-01T08:44:38;1.56;66.47
71082;SHT31;58740;50.672;18.690;2023-03-01T08:47:06;1.60;66.31
71082;SHT31;58740;50.672;18.690;2023-03-01T08:49:34;1.65;66.08
71082;SHT31;58740;50.672;18.690;2023-03-01T08:52:02;1.69;65.90
71082;SHT31;58740;50.672;18.690;2023-03-01T08:54:30;1.73;65.91
71082;SHT31;58740;50.672;18.690;2023-03-01T08:56:58;1.78;65.84
71082;SHT31;58740;50.672;18.690;2023-03-01T08:59:28;1.84;65.86
71082;SHT31;58740;50.672;18.690;2023-03-01T09:01:57;1.89;66.11
71082;SHT31;58740;50.672;18.690;2023-03-01T09:04:25;1.92;64.82
71082;SHT31;58740;50.672;18.690;2023-03-01T09:06:52;1.92;64.38
71082;SHT31;58740;50.672;18.690;2023-03-01T09:09:20;1.92;64.41
71082;SHT31;58740;50.672;18.690;2023-03-01T09:11:48;1.93;64.00
71082;SHT31;58740;50.672;18.690;2023-03-01T09:14:17;1.92;63.69
71082;SHT31;58740;50.672;18.690;2023-03-01T09:16:45;1.93;63.72
71082;SHT31;58740;50.672;18.690;2023-03-01T09:19:13;1.96;63.65
71082;SHT31;58740;50.672;18.690;2023-03-01T09:21:42;1.99;62.99
71082;SHT31;58740;50.672;18.690;2023-03-01T09:24:20;1.98;62.86
71082;SHT31;58740;50.672;18.690;2023-03-01T09:26:52;2.01;63.45
71082;SHT31;58740;50.672;18.690;2023-03-01T09:29:23;2.05;63.62
71082;SHT31;58740;50.672;18.690;2023-03-01T09:31:51;2.07;63.32
71082;SHT31;58740;50.672;18.690;2023-03-01T09:34:22;2.11;63.12
71082;SHT31;58740;50.672;18.690;2023-03-01T09:36:51;2.13;63.18
71082;SHT31;58740;50.672;18.690;2023-03-01T09:39:19;2.17;63.16
71082;SHT31;58740;50.672;18.690;2023-03-01T09:41:58;2.17;62.59
71082;SHT31;58740;50.672;18.690;2023-03-01T09:47:17;2.25;62.48
71082;SHT31;58740;50.672;18.690;2023-03-01T09:52:48;2.31;62.38
71082;SHT31;58740;50.672;18.690;2023-03-01T09:56:32;2.33;61.81
71082;SHT31;58740;50.672;18.690;2023-03-01T09:59:01;2.31;61.53
71082;SHT31;58740;50.672;18.690;2023-03-01T10:05:31;2.33;61.69
71082;SHT31;58740;50.672;18.690;2023-03-01T10:11:54;2.35;61.72
71082;SHT31;58740;50.672;18.690;2023-03-01T10:14:35;2.35;61.75
71082;SHT31;58740;50.672;18.690;2023-03-01T10:17:24;2.35;61.25
71082;SHT31;58740;50.672;18.690;2023-03-01T10:22:53;2.36;61.90
71082;SHT31;58740;50.672;18.690;2023-03-01T10:28:17;2.38;62.15
71082;SHT31;58740;50.672;18.690;2023-03-01T10:30:53;2.42;62.29
71082;SHT31;58740;50.672;18.690;2023-03-01T10:33:29;2.44;61.77
71082;SHT31;58740;50.672;18.690;2023-03-01T10:36:03;2.47;61.78
71082;SHT31;58740;50.672;18.690;2023-03-01T10:38:31;2.50;62.12
71082;SHT31;58740;50.672;18.690;2023-03-01T10:41:25;2.55;61.43
71082;SHT31;58740;50.672;18.690;2023-03-01T10:43:58;2.59;60.21
71082;SHT31;58740;50.672;18.690;2023-03-01T10:46:31;2.61;59.58
71082;SHT31;58740;50.672;18.690;2023-03-01T10:51:47;2.67;59.92
71082;SHT31;58740;50.672;18.690;2023-03-01T10:56:56;2.77;59.67
71082;SHT31;58740;50.672;18.690;2023-03-01T10:59:31;2.81;59.98
71082;SHT31;58740;50.672;18.690;2023-03-01T11:07:57;2.95;60.04
71082;SHT31;58740;50.672;18.690;2023-03-01T11:10:30;2.97;60.19
71082;SHT31;58740;50.672;18.690;2023-03-01T11:13:06;3.02;60.59
71082;SHT31;58740;50.672;18.690;2023-03-01T11:15:59;3.07;60.43
71082;SHT31;58740;50.672;18.690;2023-03-01T11:18:30;3.10;59.83
71082;SHT31;58740;50.672;18.690;2023-03-01T11:21:15;3.11;59.66
71082;SHT31;58740;50.672;18.690;2023-03-01T11:23:44;3.14;58.81
71082;SHT31;58740;50.672;18.690;2023-03-01T11:26:14;3.14;58.80
71082;SHT31;58740;50.672;18.690;2023-03-01T11:28:45;3.17;59.16
71082;SHT31;58740;50.672;18.690;2023-03-01T11:31:21;3.19;59.35
71082;SHT31;58740;50.672;18.690;2023-03-01T11:36:35;3.22;59.13
71082;SHT31;58740;50.672;18.690;2023-03-01T11:39:21;3.24;58.65
71082;SHT31;58740;50.672;18.690;2023-03-01T11:42:30;3.28;58.64
71082;SHT31;58740;50.672;18.690;2023-03-01T11:45:15;3.29;58.90
71082;SHT31;58740;50.672;18.690;2023-03-01T11:50:39;3.35;58.45
71082;SHT31;58740;50.672;18.690;2023-03-01T12:07:46;3.53;57.21
71082;SHT31;58740;50.672;18.690;2023-03-01T12:17:00;3.64;56.77
71082;SHT31;58740;50.672;18.690;2023-03-01T12:19:53;3.65;57.31
71082;SHT31;58740;50.672;18.690;2023-03-01T12:28:49;3.78;56.25
71082;SHT31;58740;50.672;18.690;2023-03-01T12:40:27;3.89;56.72
71082;SHT31;58740;50.672;18.690;2023-03-01T12:51:35;4.04;55.50
71082;SHT31;58740;50.672;18.690;2023-03-01T12:54:07;4.06;56.28
71082;SHT31;58740;50.672;18.690;2023-03-01T12:56:43;4.07;56.26
71082;SHT31;58740;50.672;18.690;2023-03-01T12:59:40;4.07;56.14
71082;SHT31;58740;50.672;18.690;2023-03-01T13:05:00;4.12;55.34
71082;SHT31;58740;50.672;18.690;2023-03-01T13:07:53;4.14;55.61
71082;SHT31;58740;50.672;18.690;2023-03-01T13:10:34;4.16;55.33
71082;SHT31;58740;50.672;18.690;2023-03-01T13:13:24;4.17;55.53
71082;SHT31;58740;50.672;18.690;2023-03-01T13:15:54;4.17;55.64
71082;SHT31;58740;50.672;18.690;2023-03-01T13:20:56;4.20;55.78
71082;SHT31;58740;50.672;18.690;2023-03-01T13:23:27;4.21;56.04
71082;SHT31;58740;50.672;18.690;2023-03-01T13:33:47;4.24;56.79
71082;SHT31;58740;50.672;18.690;2023-03-01T13:38:58;4.25;55.75
71082;SHT31;58740;50.672;18.690;2023-03-01T13:47:38;4.30;55.89
71082;SHT31;58740;50.672;18.690;2023-03-01T13:52:32;4.28;56.01
71082;SHT31;58740;50.672;18.690;2023-03-01T13:55:26;4.28;56.31
71082;SHT31;58740;50.672;18.690;2023-03-01T13:58:18;4.30;56.49
71082;SHT31;58740;50.672;18.690;2023-03-01T14:00:47;4.31;56.09
71082;SHT31;58740;50.672;18.690;2023-03-01T14:03:18;4.31;56.23
71082;SHT31;58740;50.672;18.690;2023-03-01T14:05:58;4.31;56.15
71082;SHT31;58740;50.672;18.690;2023-03-01T14:08:47;4.31;55.83
71082;SHT31;58740;50.672;18.690;2023-03-01T14:20:30;4.32;56.29
71082;SHT31;58740;50.672;18.690;2023-03-01T14:23:11;4.33;56.35
71082;SHT31;58740;50.672;18.690;2023-03-01T14:25:47;4.33;56.22
71082;SHT31;58740;50.672;18.690;2023-03-01T14:28:17;4.35;56.24
71082;SHT31;58740;50.672;18.690;2023-03-01T14:30:50;4.36;55.78
71082;SHT31;58740;50.672;18.690;2023-03-01T14:33:29;4.38;55.72
71082;SHT31;58740;50.672;18.690;2023-03-01T14:36:09;4.39;55.87
71082;SHT31;58740;50.672;18.690;2023-03-01T14:38:41;4.38;55.89
71082;SHT31;58740;50.672;18.690;2023-03-01T14:41:16;4.38;55.64
71082;SHT31;58740;50.672;18.690;2023-03-01T14:43:50;4.37;55.95
71082;SHT31;58740;50.672;18.690;2023-03-01T14:46:41;4.36;56.05
71082;SHT31;58740;50.672;18.690;2023-03-01T14:51:57;4.34;53.65
71082;SHT31;58740;50.672;18.690;2023-03-01T14:54:48;4.32;53.14
71082;SHT31;58740;50.672;18.690;2023-03-01T14:57:21;4.32;52.53
71082;SHT31;58740;50.672;18.690;2023-03-01T14:59:54;4.31;52.65
71082;SHT31;58740;50.672;18.690;2023-03-01T15:02:27;4.31;52.47
71082;SHT31;58740;50.672;18.690;2023-03-01T15:04:59;4.30;52.23
71082;SHT31;58740;50.672;18.690;2023-03-01T15:07:36;4.29;51.93
71082;SHT31;58740;50.672;18.690;2023-03-01T15:10:14;4.29;52.19
71082;SHT31;58740;50.672;18.690;2023-03-01T15:12:49;4.30;52.05
71082;SHT31;58740;50.672;18.690;2023-03-01T15:15:21;4.31;51.77
71082;SHT31;58740;50.672;18.690;2023-03-01T15:17:56;4.32;51.62
71082;SHT31;58740;50.672;18.690;2023-03-01T15:20:30;4.33;51.68
71082;SHT31;58740;50.672;18.690;2023-03-01T15:23:02;4.33;51.89
71082;SHT31;58740;50.672;18.690;2023-03-01T15:25:31;4.30;51.88
71082;SHT31;58740;50.672;18.690;2023-03-01T15:28:01;4.29;52.16
71082;SHT31;58740;50.672;18.690;2023-03-01T15:30:33;4.27;52.15
71082;SHT31;58740;50.672;18.690;2023-03-01T15:35:55;4.22;52.55
71082;SHT31;58740;50.672;18.690;2023-03-01T15:38:28;4.21;52.71
71082;SHT31;58740;50.672;18.690;2023-03-01T15:41:37;4.18;52.77
71082;SHT31;58740;50.672;18.690;2023-03-01T15:44:34;4.17;52.98
71082;SHT31;58740;50.672;18.690;2023-03-01T15:47:28;4.14;53.32
71082;SHT31;58740;50.672;18.690;2023-03-01T15:49:58;4.11;53.53
71082;SHT31;58740;50.672;18.690;2023-03-01T15:52:29;4.09;53.67
71082;SHT31;58740;50.672;18.690;2023-03-01T15:55:14;4.07;53.23
71082;SHT31;58740;50.672;18.690;2023-03-01T15:57:46;4.04;53.01
71082;SHT31;58740;50.672;18.690;2023-03-01T16:00:16;4.02;53.19
71082;SHT31;58740;50.672;18.690;2023-03-01T16:02:45;4.00;53.33
71082;SHT31;58740;50.672;18.690;2023-03-01T16:05:16;3.96;53.52
71082;SHT31;58740;50.672;18.690;2023-03-01T16:07:49;3.93;53.60
71082;SHT31;58740;50.672;18.690;2023-03-01T16:10:18;3.89;53.94
71082;SHT31;58740;50.672;18.690;2023-03-01T16:12:47;3.85;53.95
71082;SHT31;58740;50.672;18.690;2023-03-01T16:15:20;3.82;53.75
71082;SHT31;58740;50.672;18.690;2023-03-01T16:17:57;3.77;53.63
71082;SHT31;58740;50.672;18.690;2023-03-01T16:20:25;3.73;53.79
71082;SHT31;58740;50.672;18.690;2023-03-01T16:22:59;3.68;53.65
71082;SHT31;58740;50.672;18.690;2023-03-01T16:25:29;3.64;54.03
71082;SHT31;58740;50.672;18.690;2023-03-01T16:28:02;3.58;54.59
71082;SHT31;58740;50.672;18.690;2023-03-01T16:30:39;3.51;55.16
71082;SHT31;58740;50.672;18.690;2023-03-01T16:33:07;3.44;55.74
71082;SHT31;58740;50.672;18.690;2023-03-01T16:35:56;3.36;56.09
71082;SHT31;58740;50.672;18.690;2023-03-01T16:38:24;3.29;56.43
71082;SHT31;58740;50.672;18.690;2023-03-01T16:40:52;3.23;56.75
71082;SHT31;58740;50.672;18.690;2023-03-01T16:43:20;3.19;57.15
71082;SHT31;58740;50.672;18.690;2023-03-01T16:45:48;3.13;57.36
71082;SHT31;58740;50.672;18.690;2023-03-01T16:48:16;3.08;57.64
71082;SHT31;58740;50.672;18.690;2023-03-01T16:50:44;3.03;58.01
71082;SHT31;58740;50.672;18.690;2023-03-01T16:53:11;2.97;58.27
71082;SHT31;58740;50.672;18.690;2023-03-01T16:55:39;2.93;58.50
71082;SHT31;58740;50.672;18.690;2023-03-01T16:58:12;2.89;58.67
71082;SHT31;58740;50.672;18.690;2023-03-01T17:00:42;2.84;58.90
71082;SHT31;58740;50.672;18.690;2023-03-01T17:03:10;2.79;59.09
71082;SHT31;58740;50.672;18.690;2023-03-01T17:05:39;2.74;59.22
71082;SHT31;58740;50.672;18.690;2023-03-01T17:08:07;2.69;59.36
71082;SHT31;58740;50.672;18.690;2023-03-01T17:10:35;2.66;59.50
71082;SHT31;58740;50.672;18.690;2023-03-01T17:13:03;2.60;59.57
71082;SHT31;58740;50.672;18.690;2023-03-01T17:15:31;2.55;59.74
71082;SHT31;58740;50.672;18.690;2023-03-01T17:17:59;2.51;59.90
71082;SHT31;58740;50.672;18.690;2023-03-01T17:20:27;2.46;60.01
71082;SHT31;58740;50.672;18.690;2023-03-01T17:22:55;2.42;60.15
71082;SHT31;58740;50.672;18.690;2023-03-01T17:25:22;2.39;60.31
71082;SHT31;58740;50.672;18.690;2023-03-01T17:27:50;2.35;60.54
71082;SHT31;58740;50.672;18.690;2023-03-01T17:30:18;2.29;60.71
71082;SHT31;58740;50.672;18.690;2023-03-01T17:32:46;2.20;60.93
71082;SHT31;58740;50.672;18.690;2023-03-01T17:35:14;2.13;61.14
71082;SHT31;58740;50.672;18.690;2023-03-01T17:37:42;2.05;61.36
71082;SHT31;58740;50.672;18.690;2023-03-01T17:40:13;1.97;61.60
71082;SHT31;58740;50.672;18.690;2023-03-01T17:42:40;1.90;61.76
71082;SHT31;58740;50.672;18.690;2023-03-01T17:45:08;1.86;61.93
71082;SHT31;58740;50.672;18.690;2023-03-01T17:47:37;1.80;62.07
71082;SHT31;58740;50.672;18.690;2023-03-01T17:50:05;1.74;62.22
71082;SHT31;58740;50.672;18.690;2023-03-01T17:52:34;1.66;62.38
71082;SHT31;58740;50.672;18.690;2023-03-01T17:55:02;1.60;62.58
71082;SHT31;58740;50.672;18.690;2023-03-01T17:57:31;1.53;62.74
71082;SHT31;58740;50.672;18.690;2023-03-01T18:00:00;1.48;62.94
71082;SHT31;58740;50.672;18.690;2023-03-01T18:02:28;1.44;63.16